Lifter — V2DD4 — position and weather

sailwx.info

Track history (hours):
 
Tides and Currents Weather Stations Pressure Air Temp Water Temp Dewpoint Dewpoint Depression Visibility Wind Speed Wind Dir Waves Ship Positions

Lifter

Last reported at 2016-Jul-27 04:26 UTC. Time now 2016-Jul-27 13:33 UTC.
Position N 36°09' E 014°44'.

Length 119 m; draft 7.1 m.

Type: Cargo ship. MMSI: 305175000.

Date/timePositionNaut miles runAvg speedWind from/ knotsBaromVisibWave heightAir tempDewpointWater temp
2016-Jul-27 04:26N 36°09' E 014°44'1112.6
2016-Jul-27 03:33N 36°13' E 014°31'1312.6
2016-Jul-27 02:33N 36°17' E 014°16'1312.7
2016-Jul-27 01:33N 36°22' E 014°02'1212.4
2016-Jul-27 00:33N 36°26' E 013°47'1212.5
2016-Jul-26 23:33N 36°30' E 013°32'1312.8
2016-Jul-26 22:33N 36°34' E 013°17'1313.4
2016-Jul-26 21:33N 36°38' E 013°01'1313.2
2016-Jul-26 20:33N 36°42' E 012°45'1212.2
2016-Jul-26 19:33N 36°46' E 012°31'43512.4
2016-Jul-25 08:33N 37°00' E 003°27'1313.2
2016-Jul-25 07:33N 36°59' E 003°11'1313.0
2016-Jul-25 06:33N 36°59' E 002°55'1312.8
2016-Jul-25 05:33N 36°57' E 002°39'4112.6
2016-Jul-25 02:16N 36°51' E 001°48'1012.6
2016-Jul-25 01:29N 36°49' E 001°35'5112.6
2016-Jul-24 21:27N 36°41' E 000°33'5012.5
2016-Jul-24 17:29N 36°34' W 000°28'1212.3
2016-Jul-24 16:33N 36°33' W 000°42'8311.9
2016-Jul-24 09:31N 36°20' W 002°25'1212.2
2016-Jul-24 08:33N 36°18' W 002°39'1212.3
2016-Jul-24 07:33N 36°16' W 002°54'1412.4
2016-Jul-24 06:25N 36°15' W 003°12'1212.6
2016-Jul-24 05:29N 36°13' W 003°26'8413.2
2016-Jul-23 23:09N 36°01' W 005°09'814.0
2016-Jul-23 22:33N 35°60' W 005°19'14412.6
2016-Jul-23 11:10N 36°21' W 008°15'2512.7
2016-Jul-23 09:11N 36°28' W 008°45'812.3
2016-Jul-23 08:31N 36°30' W 008°55'1212.3
2016-Jul-23 07:33N 36°33' W 009°09'8211.6
2016-Jul-23 00:33N 37°48' W 009°50'1312.2
2016-Jul-22 23:27N 38°01' W 009°54'1213.0
2016-Jul-22 22:32N 38°12' W 009°57'1413.3
2016-Jul-22 21:30N 38°25' W 010°01'1313.2
2016-Jul-22 20:32N 38°38' W 010°05'2813.1
2016-Jul-22 18:24N 39°06' W 010°06'1113.1
2016-Jul-22 17:31N 39°17' W 010°06'1813.1
2016-Jul-22 16:10N 39°35' W 010°06'  
2016-Jul-20 11:18N 49°29' W 004°17'1214.0
2016-Jul-20 10:27N 49°35' W 004°01'4011.8
2016-Jul-20 07:03N 49°55' W 003°07'510.4
2016-Jul-20 06:34N 49°58' W 003°00'1110.6
2016-Jul-20 05:30N 50°02' W 002°43'2612.7
2016-Jul-20 03:24N 50°09' W 002°04'2815.3
2016-Jul-20 01:33N 50°18' W 001°22'1615.8
2016-Jul-20 00:34N 50°23' W 000°58'1413.9
2016-Jul-19 23:33N 50°26' W 000°37'1312.6
2016-Jul-19 22:34N 50°29' W 000°18'1111.5
2016-Jul-19 21:34N 50°32' W 000°01'1110.9
2016-Jul-19 20:33N 50°36' E 000°16'1111.0
2016-Jul-19 19:34N 50°39' E 000°32'1713.2
2016-Jul-19 18:16N 50°48' E 000°55'1014.6
2016-Jul-19 17:34N 50°54' E 001°08'1514.6
2016-Jul-19 16:33N 51°03' E 001°26'1211.7
2016-Jul-19 15:33N 51°04' E 001°45'2311.5
2016-Jul-19 13:33N 51°03' E 002°21'1 0.8
2016-Jul-19 12:32N 51°03' E 002°21'0 0.0
2016-Jul-19 11:23N 51°03' E 002°21'0 0.0
2016-Jul-19 10:32N 51°03' E 002°21'0 0.0
2016-Jul-19 09:29N 51°03' E 002°21'0 0.0
2016-Jul-19 08:26N 51°03' E 002°21'0 0.0
2016-Jul-19 07:32N 51°03' E 002°21'0 0.0
2016-Jul-19 06:29N 51°03' E 002°21'0 0.0
2016-Jul-19 04:14N 51°03' E 002°21'0 0.0
2016-Jul-18 23:16N 51°03' E 002°21'1 1.0
2016-Jul-18 22:33N 51°03' E 002°21'8 7.6
2016-Jul-18 21:27N 51°03' E 002°07'910.2
2016-Jul-18 20:33N 51°04' E 001°53'1413.9
2016-Jul-18 19:34N 51°09' E 002°13'1414.0
2016-Jul-18 18:33N 51°17' E 002°32'1312.7
2016-Jul-18 17:34N 51°22' E 002°50'1413.6
2016-Jul-18 16:33N 51°24' E 003°12'1514.7
2016-Jul-18 15:34N 51°26' E 003°35'1312.6
2016-Jul-18 14:33N 51°22' E 003°54'8 7.8
2016-Jul-18 13:33N 51°22' E 004°07'7 6.6
2016-Jul-18 12:33N 51°21' E 004°17'0 0.0
2016-Jul-18 11:33N 51°21' E 004°17'4 3.8
2016-Jul-18 10:33N 51°17' E 004°20'2 1.6
2016-Jul-18 09:31N 51°17' E 004°23'0 0.0
2016-Jul-18 08:31N 51°17' E 004°23'0 0.0
2016-Jul-18 07:31N 51°17' E 004°23'0 0.0
2016-Jul-18 06:31N 51°17' E 004°23'0 0.0
2016-Jul-18 05:31N 51°17' E 004°23'0 0.0
2016-Jul-18 04:31N 51°17' E 004°23'0 0.0
2016-Jul-18 03:31N 51°17' E 004°23'0 0.0
2016-Jul-18 02:31N 51°17' E 004°23'0 0.0
2016-Jul-18 01:31N 51°17' E 004°23'0 0.0
2016-Jul-18 00:31N 51°17' E 004°23'0 0.0
2016-Jul-17 23:31N 51°17' E 004°23'0 0.0
2016-Jul-17 22:31N 51°17' E 004°23'0 0.0
2016-Jul-17 21:31N 51°17' E 004°23'0 0.0
2016-Jul-17 20:31N 51°17' E 004°23'0 0.0
2016-Jul-17 19:31N 51°17' E 004°23'0 0.0
2016-Jul-17 18:31N 51°17' E 004°23'0 0.0
2016-Jul-17 17:31N 51°17' E 004°23'0 0.0
2016-Jul-17 16:28N 51°17' E 004°23'0 0.0
2016-Jul-17 15:31N 51°17' E 004°23'0 0.0
2016-Jul-17 14:31N 51°17' E 004°23'0 0.0
2016-Jul-17 13:31N 51°17' E 004°23'0 0.0
2016-Jul-17 12:31N 51°17' E 004°23'0 0.0
2016-Jul-17 11:31N 51°17' E 004°23'0 0.0
2016-Jul-17 10:31N 51°17' E 004°23'0 0.0
2016-Jul-17 09:28N 51°17' E 004°23'0 0.0
2016-Jul-17 08:31N 51°17' E 004°23'0 0.0
2016-Jul-17 07:31N 51°17' E 004°23'0 0.0
2016-Jul-17 06:31N 51°17' E 004°23'0 0.0
2016-Jul-17 04:31N 51°17' E 004°23'  
Track history (hours):
 
Tides and Currents Weather Stations Pressure Air Temp Water Temp Dewpoint Dewpoint Depression Visibility Wind Speed Wind Dir Waves Ship Positions

Lifter

Last reported at 2016-Jul-27 04:26 UTC. Time now 2016-Jul-27 13:33 UTC.
Position N 36°09' E 014°44'.

Length 119 m; draft 7.1 m.

Type: Cargo ship. MMSI: 305175000.

Date/timePositionNaut miles runAvg speedWind from/ knotsBaromVisibWave heightAir tempDewpointWater temp
2016-Jul-27 04:26N 36°09' E 014°44'1112.6
2016-Jul-27 03:33N 36°13' E 014°31'1312.6
2016-Jul-27 02:33N 36°17' E 014°16'1312.7
2016-Jul-27 01:33N 36°22' E 014°02'1212.4
2016-Jul-27 00:33N 36°26' E 013°47'1212.5
2016-Jul-26 23:33N 36°30' E 013°32'1312.8
2016-Jul-26 22:33N 36°34' E 013°17'1313.4
2016-Jul-26 21:33N 36°38' E 013°01'1313.2
2016-Jul-26 20:33N 36°42' E 012°45'1212.2
2016-Jul-26 19:33N 36°46' E 012°31'43512.4
2016-Jul-25 08:33N 37°00' E 003°27'1313.2
2016-Jul-25 07:33N 36°59' E 003°11'1313.0
2016-Jul-25 06:33N 36°59' E 002°55'1312.8
2016-Jul-25 05:33N 36°57' E 002°39'4112.6
2016-Jul-25 02:16N 36°51' E 001°48'1012.6
2016-Jul-25 01:29N 36°49' E 001°35'5112.6
2016-Jul-24 21:27N 36°41' E 000°33'5012.5
2016-Jul-24 17:29N 36°34' W 000°28'1212.3
2016-Jul-24 16:33N 36°33' W 000°42'8311.9
2016-Jul-24 09:31N 36°20' W 002°25'1212.2
2016-Jul-24 08:33N 36°18' W 002°39'1212.3
2016-Jul-24 07:33N 36°16' W 002°54'1412.4
2016-Jul-24 06:25N 36°15' W 003°12'1212.6
2016-Jul-24 05:29N 36°13' W 003°26'8413.2
2016-Jul-23 23:09N 36°01' W 005°09'814.0
2016-Jul-23 22:33N 35°60' W 005°19'14412.6
2016-Jul-23 11:10N 36°21' W 008°15'2512.7
2016-Jul-23 09:11N 36°28' W 008°45'812.3
2016-Jul-23 08:31N 36°30' W 008°55'1212.3
2016-Jul-23 07:33N 36°33' W 009°09'8211.6
2016-Jul-23 00:33N 37°48' W 009°50'1312.2
2016-Jul-22 23:27N 38°01' W 009°54'1213.0
2016-Jul-22 22:32N 38°12' W 009°57'1413.3
2016-Jul-22 21:30N 38°25' W 010°01'1313.2
2016-Jul-22 20:32N 38°38' W 010°05'2813.1
2016-Jul-22 18:24N 39°06' W 010°06'1113.1
2016-Jul-22 17:31N 39°17' W 010°06'1813.1
2016-Jul-22 16:10N 39°35' W 010°06'  
2016-Jul-20 11:18N 49°29' W 004°17'1214.0
2016-Jul-20 10:27N 49°35' W 004°01'4011.8
2016-Jul-20 07:03N 49°55' W 003°07'510.4
2016-Jul-20 06:34N 49°58' W 003°00'1110.6
2016-Jul-20 05:30N 50°02' W 002°43'2612.7
2016-Jul-20 03:24N 50°09' W 002°04'2815.3
2016-Jul-20 01:33N 50°18' W 001°22'1615.8
2016-Jul-20 00:34N 50°23' W 000°58'1413.9
2016-Jul-19 23:33N 50°26' W 000°37'1312.6
2016-Jul-19 22:34N 50°29' W 000°18'1111.5
2016-Jul-19 21:34N 50°32' W 000°01'1110.9
2016-Jul-19 20:33N 50°36' E 000°16'1111.0
2016-Jul-19 19:34N 50°39' E 000°32'1713.2
2016-Jul-19 18:16N 50°48' E 000°55'1014.6
2016-Jul-19 17:34N 50°54' E 001°08'1514.6
2016-Jul-19 16:33N 51°03' E 001°26'1211.7
2016-Jul-19 15:33N 51°04' E 001°45'2311.5
2016-Jul-19 13:33N 51°03' E 002°21'1 0.8
2016-Jul-19 12:32N 51°03' E 002°21'0 0.0
2016-Jul-19 11:23N 51°03' E 002°21'0 0.0
2016-Jul-19 10:32N 51°03' E 002°21'0 0.0
2016-Jul-19 09:29N 51°03' E 002°21'0 0.0
2016-Jul-19 08:26N 51°03' E 002°21'0 0.0
2016-Jul-19 07:32N 51°03' E 002°21'0 0.0
2016-Jul-19 06:29N 51°03' E 002°21'0 0.0
2016-Jul-19 04:14N 51°03' E 002°21'0 0.0
2016-Jul-18 23:16N 51°03' E 002°21'1 1.0
2016-Jul-18 22:33N 51°03' E 002°21'8 7.6
2016-Jul-18 21:27N 51°03' E 002°07'910.2
2016-Jul-18 20:33N 51°04' E 001°53'1413.9
2016-Jul-18 19:34N 51°09' E 002°13'1414.0
2016-Jul-18 18:33N 51°17' E 002°32'1312.7
2016-Jul-18 17:34N 51°22' E 002°50'1413.6
2016-Jul-18 16:33N 51°24' E 003°12'1514.7
2016-Jul-18 15:34N 51°26' E 003°35'1312.6
2016-Jul-18 14:33N 51°22' E 003°54'8 7.8
2016-Jul-18 13:33N 51°22' E 004°07'7 6.6
2016-Jul-18 12:33N 51°21' E 004°17'0 0.0
2016-Jul-18 11:33N 51°21' E 004°17'4 3.8
2016-Jul-18 10:33N 51°17' E 004°20'2 1.6
2016-Jul-18 09:31N 51°17' E 004°23'0 0.0
2016-Jul-18 08:31N 51°17' E 004°23'0 0.0
2016-Jul-18 07:31N 51°17' E 004°23'0 0.0
2016-Jul-18 06:31N 51°17' E 004°23'0 0.0
2016-Jul-18 05:31N 51°17' E 004°23'0 0.0
2016-Jul-18 04:31N 51°17' E 004°23'0 0.0
2016-Jul-18 03:31N 51°17' E 004°23'0 0.0
2016-Jul-18 02:31N 51°17' E 004°23'0 0.0
2016-Jul-18 01:31N 51°17' E 004°23'0 0.0
2016-Jul-18 00:31N 51°17' E 004°23'0 0.0
2016-Jul-17 23:31N 51°17' E 004°23'0 0.0
2016-Jul-17 22:31N 51°17' E 004°23'0 0.0
2016-Jul-17 21:31N 51°17' E 004°23'0 0.0
2016-Jul-17 20:31N 51°17' E 004°23'0 0.0
2016-Jul-17 19:31N 51°17' E 004°23'0 0.0
2016-Jul-17 18:31N 51°17' E 004°23'0 0.0
2016-Jul-17 17:31N 51°17' E 004°23'0 0.0
2016-Jul-17 16:28N 51°17' E 004°23'0 0.0
2016-Jul-17 15:31N 51°17' E 004°23'0 0.0
2016-Jul-17 14:31N 51°17' E 004°23'0 0.0
2016-Jul-17 13:31N 51°17' E 004°23'0 0.0
2016-Jul-17 12:31N 51°17' E 004°23'0 0.0
2016-Jul-17 11:31N 51°17' E 004°23'0 0.0
2016-Jul-17 10:31N 51°17' E 004°23'0 0.0
2016-Jul-17 09:28N 51°17' E 004°23'0 0.0
2016-Jul-17 08:31N 51°17' E 004°23'0 0.0
2016-Jul-17 07:31N 51°17' E 004°23'0 0.0
2016-Jul-17 06:31N 51°17' E 004°23'0 0.0
2016-Jul-17 04:31N 51°17' E 004°23'  

Dump ship's entire track history